sensor_id;sensor_type;location;lat;lon;timestamp;pressure;altitude;pressure_sealevel;temperature
49593;BMP280;35499;51.482;4.264;2023-11-21T00:01:51;100958.56;;;9.27
49593;BMP280;35499;51.482;4.264;2023-11-21T00:04:17;100955.16;;;9.28
49593;BMP280;35499;51.482;4.264;2023-11-21T00:06:42;100961.97;;;9.29
49593;BMP280;35499;51.482;4.264;2023-11-21T00:09:07;100960.25;;;9.31
49593;BMP280;35499;51.482;4.264;2023-11-21T00:11:33;100965.38;;;9.31
49593;BMP280;35499;51.482;4.264;2023-11-21T00:13:59;100960.25;;;9.31
49593;BMP280;35499;51.482;4.264;2023-11-21T00:16:24;100964.53;;;9.30
49593;BMP280;35499;51.482;4.264;2023-11-21T00:18:50;100957.72;;;9.28
49593;BMP280;35499;51.482;4.264;2023-11-21T00:21:16;100967.09;;;9.29
49593;BMP280;35499;51.482;4.264;2023-11-21T00:23:41;100961.97;;;9.29
49593;BMP280;35499;51.482;4.264;2023-11-21T00:26:06;100964.50;;;9.32
49593;BMP280;35499;51.482;4.264;2023-11-21T00:28:32;100960.22;;;9.34
49593;BMP280;35499;51.482;4.264;2023-11-21T00:30:57;100967.03;;;9.38
49593;BMP280;35499;51.482;4.264;2023-11-21T00:33:22;100964.47;;;9.41
49593;BMP280;35499;51.482;4.264;2023-11-21T00:35:48;100965.28;;;9.43
49593;BMP280;35499;51.482;4.264;2023-11-21T00:38:13;100957.59;;;9.44
49593;BMP280;35499;51.482;4.264;2023-11-21T00:40:38;100956.69;;;9.47
49593;BMP280;35499;51.482;4.264;2023-11-21T00:43:03;100955.84;;;9.49
49593;BMP280;35499;51.482;4.264;2023-11-21T00:45:29;100963.56;;;9.45
49593;BMP280;35499;51.482;4.264;2023-11-21T00:47:54;100961.91;;;9.39
49593;BMP280;35499;51.482;4.264;2023-11-21T00:50:21;100964.50;;;9.32
49593;BMP280;35499;51.482;4.264;2023-11-21T00:52:46;100960.25;;;9.28
49593;BMP280;35499;51.482;4.264;2023-11-21T00:55:11;100971.41;;;9.23
49593;BMP280;35499;51.482;4.264;2023-11-21T00:57:37;100966.31;;;9.18
49593;BMP280;35499;51.482;4.264;2023-11-21T01:00:02;100967.19;;;9.14
49593;BMP280;35499;51.482;4.264;2023-11-21T01:02:32;100974.91;;;9.13
49593;BMP280;35499;51.482;4.264;2023-11-21T01:04:57;100972.31;;;9.14
49593;BMP280;35499;51.482;4.264;2023-11-21T01:07:23;100970.63;;;9.13
49593;BMP280;35499;51.482;4.264;2023-11-21T01:09:48;100980.88;;;9.13
49593;BMP280;35499;51.482;4.264;2023-11-21T01:12:13;100979.16;;;9.12
49593;BMP280;35499;51.482;4.264;2023-11-21T01:14:39;100969.78;;;9.13
49593;BMP280;35499;51.482;4.264;2023-11-21T01:17:04;100974.03;;;9.12
49593;BMP280;35499;51.482;4.264;2023-11-21T01:19:30;100980.00;;;9.11
49593;BMP280;35499;51.482;4.264;2023-11-21T01:21:55;100981.75;;;9.11
49593;BMP280;35499;51.482;4.264;2023-11-21T01:24:23;100986.00;;;9.12
49593;BMP280;35499;51.482;4.264;2023-11-21T01:26:48;100983.44;;;9.13
49593;BMP280;35499;51.482;4.264;2023-11-21T01:29:13;100980.00;;;9.14
49593;BMP280;35499;51.482;4.264;2023-11-21T01:31:38;100985.13;;;9.16
49593;BMP280;35499;51.482;4.264;2023-11-21T01:34:04;100999.63;;;9.18
49593;BMP280;35499;51.482;4.264;2023-11-21T01:36:31;101003.03;;;9.20
49593;BMP280;35499;51.482;4.264;2023-11-21T01:38:57;101004.75;;;9.21
49593;BMP280;35499;51.482;4.264;2023-11-21T01:41:25;101002.19;;;9.21
49593;BMP280;35499;51.482;4.264;2023-11-21T01:43:52;101005.56;;;9.23
49593;BMP280;35499;51.482;4.264;2023-11-21T01:46:18;101010.69;;;9.26
49593;BMP280;35499;51.482;4.264;2023-11-21T01:48:45;101014.94;;;9.27
49593;BMP280;35499;51.482;4.264;2023-11-21T01:51:10;101010.66;;;9.29
49593;BMP280;35499;51.482;4.264;2023-11-21T01:53:35;101020.88;;;9.32
49593;BMP280;35499;51.482;4.264;2023-11-21T01:56:01;101010.63;;;9.32
49593;BMP280;35499;51.482;4.264;2023-11-21T01:58:27;101014.91;;;9.36
49593;BMP280;35499;51.482;4.264;2023-11-21T02:00:52;101023.41;;;9.38
49593;BMP280;35499;51.482;4.264;2023-11-21T02:03:20;101021.69;;;9.40
49593;BMP280;35499;51.482;4.264;2023-11-21T02:05:45;101019.97;;;9.42
49593;BMP280;35499;51.482;4.264;2023-11-21T02:08:11;101018.25;;;9.44
49593;BMP280;35499;51.482;4.264;2023-11-21T02:10:36;101019.09;;;9.46
49593;BMP280;35499;51.482;4.264;2023-11-21T02:13:02;101017.41;;;9.46
49593;BMP280;35499;51.482;4.264;2023-11-21T02:15:28;101024.19;;;9.48
49593;BMP280;35499;51.482;4.264;2023-11-21T02:17:54;101025.03;;;9.50
49593;BMP280;35499;51.482;4.264;2023-11-21T02:20:21;101023.34;;;9.51
49593;BMP280;35499;51.482;4.264;2023-11-21T02:25:14;101031.84;;;9.51
49593;BMP280;35499;51.482;4.264;2023-11-21T02:27:40;101033.56;;;9.52
49593;BMP280;35499;51.482;4.264;2023-11-21T02:30:05;101034.41;;;9.53
49593;BMP280;35499;51.482;4.264;2023-11-21T02:32:32;101030.13;;;9.53
49593;BMP280;35499;51.482;4.264;2023-11-21T02:34:58;101032.66;;;9.58
49593;BMP280;35499;51.482;4.264;2023-11-21T02:37:26;101040.31;;;9.62
49593;BMP280;35499;51.482;4.264;2023-11-21T02:39:52;101029.16;;;9.67
49593;BMP280;35499;51.482;4.264;2023-11-21T02:42:18;101027.41;;;9.72
49593;BMP280;35499;51.482;4.264;2023-11-21T02:44:43;101034.25;;;9.76
49593;BMP280;35499;51.482;4.264;2023-11-21T02:47:08;101034.25;;;9.79
49593;BMP280;35499;51.482;4.264;2023-11-21T02:49:34;101034.22;;;9.83
49593;BMP280;35499;51.482;4.264;2023-11-21T02:52:01;101029.94;;;9.85
49593;BMP280;35499;51.482;4.264;2023-11-21T02:54:26;101036.72;;;9.89
49593;BMP280;35499;51.482;4.264;2023-11-21T02:56:52;101030.75;;;9.90
49593;BMP280;35499;51.482;4.264;2023-11-21T02:59:17;101032.41;;;9.93
49593;BMP280;35499;51.482;4.264;2023-11-21T03:01:43;101032.41;;;9.94
49593;BMP280;35499;51.482;4.264;2023-11-21T03:04:08;101033.25;;;9.96
49593;BMP280;35499;51.482;4.264;2023-11-21T03:06:33;101027.25;;;9.97
49593;BMP280;35499;51.482;4.264;2023-11-21T03:08:59;101029.81;;;9.97
49593;BMP280;35499;51.482;4.264;2023-11-21T03:11:24;101035.81;;;9.96
49593;BMP280;35499;51.482;4.264;2023-11-21T03:13:49;101046.09;;;9.96
49593;BMP280;35499;51.482;4.264;2023-11-21T03:16:16;101050.38;;;9.96
49593;BMP280;35499;51.482;4.264;2023-11-21T03:18:41;101054.66;;;9.95
49593;BMP280;35499;51.482;4.264;2023-11-21T03:21:07;101046.94;;;9.95
49593;BMP280;35499;51.482;4.264;2023-11-21T03:23:35;101052.06;;;9.95
49593;BMP280;35499;51.482;4.264;2023-11-21T03:26:01;101043.53;;;9.96
49593;BMP280;35499;51.482;4.264;2023-11-21T03:28:26;101040.97;;;9.96
49593;BMP280;35499;51.482;4.264;2023-11-21T03:30:53;101043.53;;;9.96
49593;BMP280;35499;51.482;4.264;2023-11-21T03:33:18;101045.19;;;9.97
49593;BMP280;35499;51.482;4.264;2023-11-21T03:35:44;101049.47;;;9.97
49593;BMP280;35499;51.482;4.264;2023-11-21T03:38:09;101058.91;;;9.96
49593;BMP280;35499;51.482;4.264;2023-11-21T03:40:35;101054.59;;;9.97
49593;BMP280;35499;51.482;4.264;2023-11-21T03:43:00;101062.31;;;9.97
49593;BMP280;35499;51.482;4.264;2023-11-21T03:45:25;101072.56;;;9.98
49593;BMP280;35499;51.482;4.264;2023-11-21T03:47:51;101062.31;;;9.98
49593;BMP280;35499;51.482;4.264;2023-11-21T03:50:16;101067.44;;;9.98
49593;BMP280;35499;51.482;4.264;2023-11-21T03:52:41;101070.84;;;10.00
49593;BMP280;35499;51.482;4.264;2023-11-21T03:55:07;101070.00;;;9.98
49593;BMP280;35499;51.482;4.264;2023-11-21T03:57:32;101077.69;;;10.01
49593;BMP280;35499;51.482;4.264;2023-11-21T03:59:58;101084.50;;;10.02
49593;BMP280;35499;51.482;4.264;2023-11-21T04:02:23;101087.06;;;10.02
49593;BMP280;35499;51.482;4.264;2023-11-21T04:04:50;101083.63;;;10.01
49593;BMP280;35499;51.482;4.264;2023-11-21T04:07:15;101091.34;;;10.01
49593;BMP280;35499;51.482;4.264;2023-11-21T04:09:40;101094.75;;;10.02
49593;BMP280;35499;51.482;4.264;2023-11-21T04:12:06;101089.63;;;10.02
49593;BMP280;35499;51.482;4.264;2023-11-21T04:14:34;101089.63;;;10.03
49593;BMP280;35499;51.482;4.264;2023-11-21T04:16:59;101097.28;;;10.06
49593;BMP280;35499;51.482;4.264;2023-11-21T04:19:24;101099.00;;;10.07
49593;BMP280;35499;51.482;4.264;2023-11-21T04:21:49;101097.28;;;10.09
49593;BMP280;35499;51.482;4.264;2023-11-21T04:24:15;101102.41;;;10.11
49593;BMP280;35499;51.482;4.264;2023-11-21T04:26:41;101094.66;;;10.14
49593;BMP280;35499;51.482;4.264;2023-11-21T04:29:06;101096.38;;;10.15
49593;BMP280;35499;51.482;4.264;2023-11-21T04:31:31;101104.91;;;10.17
49593;BMP280;35499;51.482;4.264;2023-11-21T04:33:57;101104.03;;;10.19
49593;BMP280;35499;51.482;4.264;2023-11-21T04:36:22;101107.44;;;10.19
49593;BMP280;35499;51.482;4.264;2023-11-21T04:38:47;101109.97;;;10.22
49593;BMP280;35499;51.482;4.264;2023-11-21T04:41:13;101120.25;;;10.24
49593;BMP280;35499;51.482;4.264;2023-11-21T04:43:38;101122.81;;;10.25
49593;BMP280;35499;51.482;4.264;2023-11-21T04:46:03;101129.59;;;10.29
49593;BMP280;35499;51.482;4.264;2023-11-21T04:48:29;101128.75;;;10.30
49593;BMP280;35499;51.482;4.264;2023-11-21T04:50:54;101126.16;;;10.32
49593;BMP280;35499;51.482;4.264;2023-11-21T04:53:19;101129.56;;;10.34
49593;BMP280;35499;51.482;4.264;2023-11-21T04:55:45;101136.41;;;10.35
49593;BMP280;35499;51.482;4.264;2023-11-21T04:58:14;101140.66;;;10.37
49593;BMP280;35499;51.482;4.264;2023-11-21T05:00:39;101132.09;;;10.38
49593;BMP280;35499;51.482;4.264;2023-11-21T05:03:04;101140.66;;;10.40
49593;BMP280;35499;51.482;4.264;2023-11-21T05:05:32;101135.47;;;10.43
49593;BMP280;35499;51.482;4.264;2023-11-21T05:07:57;101130.34;;;10.43
49593;BMP280;35499;51.482;4.264;2023-11-21T05:10:22;101148.31;;;10.46
49593;BMP280;35499;51.482;4.264;2023-11-21T05:12:48;101141.41;;;10.46
49593;BMP280;35499;51.482;4.264;2023-11-21T05:15:15;101146.56;;;10.48
49593;BMP280;35499;51.482;4.264;2023-11-21T05:17:42;101151.69;;;10.48
49593;BMP280;35499;51.482;4.264;2023-11-21T05:20:08;101143.97;;;10.48
49593;BMP280;35499;51.482;4.264;2023-11-21T05:22:35;101151.69;;;10.51
49593;BMP280;35499;51.482;4.264;2023-11-21T05:25:01;101159.38;;;10.51
49593;BMP280;35499;51.482;4.264;2023-11-21T05:27:28;101155.91;;;10.52
49593;BMP280;35499;51.482;4.264;2023-11-21T05:29:53;101160.19;;;10.53
49593;BMP280;35499;51.482;4.264;2023-11-21T05:32:18;101158.47;;;10.52
49593;BMP280;35499;51.482;4.264;2023-11-21T05:34:44;101168.75;;;10.52
49593;BMP280;35499;51.482;4.264;2023-11-21T05:37:09;101172.19;;;10.54
49593;BMP280;35499;51.482;4.264;2023-11-21T05:39:34;101170.47;;;10.53
49593;BMP280;35499;51.482;4.264;2023-11-21T05:42:01;101170.47;;;10.54
49593;BMP280;35499;51.482;4.264;2023-11-21T05:44:26;101177.31;;;10.54
49593;BMP280;35499;51.482;4.264;2023-11-21T05:46:51;101184.16;;;10.55
49593;BMP280;35499;51.482;4.264;2023-11-21T05:49:17;101181.59;;;10.55
49593;BMP280;35499;51.482;4.264;2023-11-21T05:51:42;101182.44;;;10.55
49593;BMP280;35499;51.482;4.264;2023-11-21T05:54:07;101199.53;;;10.56
49593;BMP280;35499;51.482;4.264;2023-11-21T05:56:33;101191.00;;;10.55
49593;BMP280;35499;51.482;4.264;2023-11-21T05:58:58;101203.84;;;10.55
49593;BMP280;35499;51.482;4.264;2023-11-21T06:01:24;101207.22;;;10.57
49593;BMP280;35499;51.482;4.264;2023-11-21T06:03:50;101210.66;;;10.56
49593;BMP280;35499;51.482;4.264;2023-11-21T06:06:15;101221.78;;;10.57
49593;BMP280;35499;51.482;4.264;2023-11-21T06:08:40;101221.78;;;10.57
49593;BMP280;35499;51.482;4.264;2023-11-21T06:11:05;101215.78;;;10.56
49593;BMP280;35499;51.482;4.264;2023-11-21T06:13:31;101222.63;;;10.57
49593;BMP280;35499;51.482;4.264;2023-11-21T06:15:56;101222.63;;;10.57
49593;BMP280;35499;51.482;4.264;2023-11-21T06:18:21;101226.06;;;10.58
49593;BMP280;35499;51.482;4.264;2023-11-21T06:20:46;101231.19;;;10.58
49593;BMP280;35499;51.482;4.264;2023-11-21T06:23:12;101229.47;;;10.58
49593;BMP280;35499;51.482;4.264;2023-11-21T06:25:40;101232.06;;;10.58
49593;BMP280;35499;51.482;4.264;2023-11-21T06:28:06;101227.78;;;10.60
49593;BMP280;35499;51.482;4.264;2023-11-21T06:30:31;101237.16;;;10.63
49593;BMP280;35499;51.482;4.264;2023-11-21T06:32:57;101241.44;;;10.62
49593;BMP280;35499;51.482;4.264;2023-11-21T06:35:22;101244.00;;;10.64
49593;BMP280;35499;51.482;4.264;2023-11-21T06:37:47;101248.28;;;10.65
49593;BMP280;35499;51.482;4.264;2023-11-21T06:40:13;101247.38;;;10.67
49593;BMP280;35499;51.482;4.264;2023-11-21T06:42:43;101249.94;;;10.67
49593;BMP280;35499;51.482;4.264;2023-11-21T06:45:09;101248.22;;;10.69
49593;BMP280;35499;51.482;4.264;2023-11-21T06:47:35;101262.78;;;10.70
49593;BMP280;35499;51.482;4.264;2023-11-21T06:50:01;101268.75;;;10.72
49593;BMP280;35499;51.482;4.264;2023-11-21T06:52:26;101269.59;;;10.73
49593;BMP280;35499;51.482;4.264;2023-11-21T06:54:51;101266.19;;;10.72
49593;BMP280;35499;51.482;4.264;2023-11-21T06:57:17;101267.03;;;10.74
49593;BMP280;35499;51.482;4.264;2023-11-21T06:59:42;101268.75;;;10.75
49593;BMP280;35499;51.482;4.264;2023-11-21T07:02:08;101269.59;;;10.75
49593;BMP280;35499;51.482;4.264;2023-11-21T07:04:34;101285.00;;;10.75
49593;BMP280;35499;51.482;4.264;2023-11-21T07:07:00;101290.97;;;10.76
49593;BMP280;35499;51.482;4.264;2023-11-21T07:09:25;101291.84;;;10.75
49593;BMP280;35499;51.482;4.264;2023-11-21T07:11:54;101294.44;;;10.72
49593;BMP280;35499;51.482;4.264;2023-11-21T07:14:20;101301.31;;;10.67
49593;BMP280;35499;51.482;4.264;2023-11-21T07:16:46;101303.06;;;10.62
49593;BMP280;35499;51.482;4.264;2023-11-21T07:19:12;101304.00;;;10.54
49593;BMP280;35499;51.482;4.264;2023-11-21T07:21:38;101312.59;;;10.47
49593;BMP280;35499;51.482;4.264;2023-11-21T07:24:05;101322.88;;;10.41
49593;BMP280;35499;51.482;4.264;2023-11-21T07:26:34;101324.66;;;10.35
49593;BMP280;35499;51.482;4.264;2023-11-21T07:29:01;101334.09;;;10.30
49593;BMP280;35499;51.482;4.264;2023-11-21T07:31:27;101335.00;;;10.23
49593;BMP280;35499;51.482;4.264;2023-11-21T07:33:54;101339.25;;;10.21
49593;BMP280;35499;51.482;4.264;2023-11-21T07:36:19;101336.72;;;10.19
49593;BMP280;35499;51.482;4.264;2023-11-21T07:38:47;101345.31;;;10.15
49593;BMP280;35499;51.482;4.264;2023-11-21T07:41:13;101353.00;;;10.12
49593;BMP280;35499;51.482;4.264;2023-11-21T07:43:41;101341.06;;;10.11
49593;BMP280;35499;51.482;4.264;2023-11-21T07:46:06;101347.03;;;10.10
49593;BMP280;35499;51.482;4.264;2023-11-21T07:48:33;101344.44;;;10.11
49593;BMP280;35499;51.482;4.264;2023-11-21T07:51:01;101353.00;;;10.15
49593;BMP280;35499;51.482;4.264;2023-11-21T07:53:28;101352.13;;;10.19
49593;BMP280;35499;51.482;4.264;2023-11-21T07:55:55;101359.78;;;10.23
49593;BMP280;35499;51.482;4.264;2023-11-21T07:58:21;101367.47;;;10.30
49593;BMP280;35499;51.482;4.264;2023-11-21T08:00:46;101370.00;;;10.36
49593;BMP280;35499;51.482;4.264;2023-11-21T08:03:13;101370.81;;;10.42
49593;BMP280;35499;51.482;4.264;2023-11-21T08:05:38;101379.31;;;10.55
49593;BMP280;35499;51.482;4.264;2023-11-21T08:08:04;101380.94;;;10.70
49593;BMP280;35499;51.482;4.264;2023-11-21T08:10:29;101389.47;;;10.75
49593;BMP280;35499;51.482;4.264;2023-11-21T08:12:55;101393.72;;;10.79
49593;BMP280;35499;51.482;4.264;2023-11-21T08:15:20;101386.00;;;10.85
49593;BMP280;35499;51.482;4.264;2023-11-21T08:17:46;101391.09;;;10.91
49593;BMP280;35499;51.482;4.264;2023-11-21T08:20:12;101387.63;;;10.93
49593;BMP280;35499;51.482;4.264;2023-11-21T08:22:38;101391.88;;;10.97
49593;BMP280;35499;51.482;4.264;2023-11-21T08:25:06;101390.97;;;11.05
49593;BMP280;35499;51.482;4.264;2023-11-21T08:27:33;101394.31;;;11.14
49593;BMP280;35499;51.482;4.264;2023-11-21T08:30:00;101392.53;;;11.22
49593;BMP280;35499;51.482;4.264;2023-11-21T08:32:25;101389.09;;;11.25
49593;BMP280;35499;51.482;4.264;2023-11-21T08:34:50;101399.38;;;11.25
49593;BMP280;35499;51.482;4.264;2023-11-21T08:37:16;101399.34;;;11.26
49593;BMP280;35499;51.482;4.264;2023-11-21T08:39:46;101407.09;;;11.25
49593;BMP280;35499;51.482;4.264;2023-11-21T08:42:13;101399.44;;;11.19
49593;BMP280;35499;51.482;4.264;2023-11-21T08:44:38;101404.63;;;11.11
49593;BMP280;35499;51.482;4.264;2023-11-21T08:47:04;101402.94;;;11.08
49593;BMP280;35499;51.482;4.264;2023-11-21T08:49:30;101414.00;;;11.17
49593;BMP280;35499;51.482;4.264;2023-11-21T08:51:55;101402.78;;;11.34
49593;BMP280;35499;51.482;4.264;2023-11-21T08:54:21;101402.63;;;11.50
49593;BMP280;35499;51.482;4.264;2023-11-21T08:56:46;101404.00;;;11.81
49593;BMP280;35499;51.482;4.264;2023-11-21T08:59:12;101413.28;;;11.98
49593;BMP280;35499;51.482;4.264;2023-11-21T09:01:39;101411.50;;;12.00
49593;BMP280;35499;51.482;4.264;2023-11-21T09:04:05;101412.41;;;11.99
49593;BMP280;35499;51.482;4.264;2023-11-21T09:06:30;101416.66;;;12.00
49593;BMP280;35499;51.482;4.264;2023-11-21T09:08:56;101416.38;;;12.27
49593;BMP280;35499;51.482;4.264;2023-11-21T09:11:21;101423.78;;;12.52
49593;BMP280;35499;51.482;4.264;2023-11-21T09:13:46;101422.44;;;12.89
49593;BMP280;35499;51.482;4.264;2023-11-21T09:16:13;101419.00;;;12.90
49593;BMP280;35499;51.482;4.264;2023-11-21T09:18:38;101432.75;;;12.89
49593;BMP280;35499;51.482;4.264;2023-11-21T09:21:04;101429.41;;;12.81
49593;BMP280;35499;51.482;4.264;2023-11-21T09:23:30;101437.28;;;12.71
49593;BMP280;35499;51.482;4.264;2023-11-21T09:25:55;101448.63;;;12.57
49593;BMP280;35499;51.482;4.264;2023-11-21T09:28:22;101449.59;;;12.47
49593;BMP280;35499;51.482;4.264;2023-11-21T09:30:47;101453.09;;;12.40
49593;BMP280;35499;51.482;4.264;2023-11-21T09:33:14;101458.31;;;12.37
49593;BMP280;35499;51.482;4.264;2023-11-21T09:35:40;101454.88;;;12.37
49593;BMP280;35499;51.482;4.264;2023-11-21T09:38:05;101452.31;;;12.35
49593;BMP280;35499;51.482;4.264;2023-11-21T09:40:35;101457.50;;;12.34
49593;BMP280;35499;51.482;4.264;2023-11-21T09:43:08;101441.19;;;13.00
49593;BMP280;35499;51.482;4.264;2023-11-21T09:45:39;101429.19;;;14.42
49593;BMP280;35499;51.482;4.264;2023-11-21T09:48:05;101443.28;;;15.77
49593;BMP280;35499;51.482;4.264;2023-11-21T09:50:32;101515.09;;;16.67
49593;BMP280;35499;51.482;4.264;2023-11-21T09:55:27;101558.66;;;16.86
49593;BMP280;35499;51.482;4.264;2023-11-21T09:57:56;101558.81;;;16.49
49593;BMP280;35499;51.482;4.264;2023-11-21T10:04:32;101568.81;;;15.24
49593;BMP280;35499;51.482;4.264;2023-11-21T10:06:58;101566.94;;;14.92
49593;BMP280;35499;51.482;4.264;2023-11-21T10:09:25;101561.34;;;14.68
49593;BMP280;35499;51.482;4.264;2023-11-21T10:11:52;101563.50;;;14.45
49593;BMP280;35499;51.482;4.264;2023-11-21T10:14:18;101577.88;;;14.14
49593;BMP280;35499;51.482;4.264;2023-11-21T10:16:46;101586.06;;;13.88
49593;BMP280;35499;51.482;4.264;2023-11-21T10:19:13;101578.59;;;13.69
49593;BMP280;35499;51.482;4.264;2023-11-21T10:21:41;101584.78;;;13.55
49593;BMP280;35499;51.482;4.264;2023-11-21T10:24:07;101584.13;;;13.43
49593;BMP280;35499;51.482;4.264;2023-11-21T10:26:33;101596.31;;;13.32
49593;BMP280;35499;51.482;4.264;2023-11-21T10:29:00;101594.72;;;13.23
49593;BMP280;35499;51.482;4.264;2023-11-21T10:31:30;101591.38;;;13.16
49593;BMP280;35499;51.482;4.264;2023-11-21T10:34:15;101588.03;;;13.10
49593;BMP280;35499;51.482;4.264;2023-11-21T10:36:41;101591.53;;;13.05
49593;BMP280;35499;51.482;4.264;2023-11-21T10:39:06;101595.91;;;12.97
49593;BMP280;35499;51.482;4.264;2023-11-21T10:41:32;101599.47;;;12.90
49593;BMP280;35499;51.482;4.264;2023-11-21T10:43:57;101604.63;;;12.87
49593;BMP280;35499;51.482;4.264;2023-11-21T10:46:23;101607.22;;;12.86
49593;BMP280;35499;51.482;4.264;2023-11-21T10:48:53;101612.44;;;12.83
49593;BMP280;35499;51.482;4.264;2023-11-21T10:51:22;101610.72;;;12.80
49593;BMP280;35499;51.482;4.264;2023-11-21T10:53:47;101615.06;;;12.75
49593;BMP280;35499;51.482;4.264;2023-11-21T10:56:16;101624.56;;;12.70
49593;BMP280;35499;51.482;4.264;2023-11-21T10:58:48;101625.53;;;12.61
49593;BMP280;35499;51.482;4.264;2023-11-21T11:01:16;101628.16;;;12.53
49593;BMP280;35499;51.482;4.264;2023-11-21T11:03:44;101619.63;;;12.47
49593;BMP280;35499;51.482;4.264;2023-11-21T11:06:10;101629.97;;;12.44
49593;BMP280;35499;51.482;4.264;2023-11-21T11:08:39;101632.59;;;12.38
49593;BMP280;35499;51.482;4.264;2023-11-21T11:11:06;101637.81;;;12.33
49593;BMP280;35499;51.482;4.264;2023-11-21T11:13:31;101637.03;;;12.25
49593;BMP280;35499;51.482;4.264;2023-11-21T11:16:01;101644.81;;;12.19
49593;BMP280;35499;51.482;4.264;2023-11-21T11:18:28;101641.41;;;12.13
49593;BMP280;35499;51.482;4.264;2023-11-21T11:21:01;101643.16;;;12.06
49593;BMP280;35499;51.482;4.264;2023-11-21T11:26:49;101638.09;;;11.98
49593;BMP280;35499;51.482;4.264;2023-11-21T11:32:27;101624.44;;;11.90
49593;BMP280;35499;51.482;4.264;2023-11-21T11:35:16;101631.31;;;11.88
49593;BMP280;35499;51.482;4.264;2023-11-21T11:37:43;101636.47;;;11.83
49593;BMP280;35499;51.482;4.264;2023-11-21T11:40:11;101633.09;;;11.80
49593;BMP280;35499;51.482;4.264;2023-11-21T11:42:36;101640.81;;;11.77
49593;BMP280;35499;51.482;4.264;2023-11-21T11:45:17;101640.84;;;11.73
49593;BMP280;35499;51.482;4.264;2023-11-21T11:47:42;101645.97;;;11.71
49593;BMP280;35499;51.482;4.264;2023-11-21T11:50:11;101644.31;;;11.69
49593;BMP280;35499;51.482;4.264;2023-11-21T11:52:48;101640.88;;;11.67
49593;BMP280;35499;51.482;4.264;2023-11-21T11:55:16;101650.31;;;11.69
49593;BMP280;35499;51.482;4.264;2023-11-21T11:57:44;101647.69;;;11.72
49593;BMP280;35499;51.482;4.264;2023-11-21T12:00:19;101644.28;;;11.75
49593;BMP280;35499;51.482;4.264;2023-11-21T12:02:51;101644.25;;;11.78
49593;BMP280;35499;51.482;4.264;2023-11-21T12:05:18;101658.81;;;11.80
49593;BMP280;35499;51.482;4.264;2023-11-21T12:10:18;101659.66;;;11.83
49593;BMP280;35499;51.482;4.264;2023-11-21T12:12:46;101663.06;;;11.84
49593;BMP280;35499;51.482;4.264;2023-11-21T12:15:11;101666.50;;;11.83
49593;BMP280;35499;51.482;4.264;2023-11-21T12:17:38;101669.09;;;11.83
49593;BMP280;35499;51.482;4.264;2023-11-21T12:20:04;101675.94;;;11.81
49593;BMP280;35499;51.482;4.264;2023-11-21T12:22:31;101684.56;;;11.80
49593;BMP280;35499;51.482;4.264;2023-11-21T12:24:56;101687.97;;;11.79
49593;BMP280;35499;51.482;4.264;2023-11-21T12:27:22;101688.84;;;11.80
49593;BMP280;35499;51.482;4.264;2023-11-21T12:29:47;101685.41;;;11.79
49593;BMP280;35499;51.482;4.264;2023-11-21T12:32:12;101687.97;;;11.79
49593;BMP280;35499;51.482;4.264;2023-11-21T12:34:40;101684.56;;;11.79
49593;BMP280;35499;51.482;4.264;2023-11-21T12:37:05;101685.38;;;11.82
49593;BMP280;35499;51.482;4.264;2023-11-21T12:39:31;101679.38;;;11.83
49593;BMP280;35499;51.482;4.264;2023-11-21T12:41:57;101682.81;;;11.85
49593;BMP280;35499;51.482;4.264;2023-11-21T12:44:22;101689.66;;;11.86
49593;BMP280;35499;51.482;4.264;2023-11-21T12:46:49;101681.06;;;11.87
49593;BMP280;35499;51.482;4.264;2023-11-21T12:49:15;101689.66;;;11.89
49593;BMP280;35499;51.482;4.264;2023-11-21T12:51:44;101681.91;;;11.89
49593;BMP280;35499;51.482;4.264;2023-11-21T12:54:10;101686.22;;;11.90
49593;BMP280;35499;51.482;4.264;2023-11-21T12:56:39;101696.50;;;11.90
49593;BMP280;35499;51.482;4.264;2023-11-21T12:59:04;101699.94;;;11.89
49593;BMP280;35499;51.482;4.264;2023-11-21T13:01:30;101705.09;;;11.90
49593;BMP280;35499;51.482;4.264;2023-11-21T13:03:57;101711.94;;;11.90
49593;BMP280;35499;51.482;4.264;2023-11-21T13:06:23;101712.81;;;11.90
49593;BMP280;35499;51.482;4.264;2023-11-21T13:08:51;101717.09;;;11.90
49593;BMP280;35499;51.482;4.264;2023-11-21T13:11:16;101720.53;;;11.89
49593;BMP280;35499;51.482;4.264;2023-11-21T13:13:43;101723.09;;;11.90
49593;BMP280;35499;51.482;4.264;2023-11-21T13:16:09;101729.97;;;11.90
49593;BMP280;35499;51.482;4.264;2023-11-21T13:18:34;101737.69;;;11.90
49593;BMP280;35499;51.482;4.264;2023-11-21T13:21:04;101735.97;;;11.87
49593;BMP280;35499;51.482;4.264;2023-11-21T13:23:39;101744.56;;;11.88
49593;BMP280;35499;51.482;4.264;2023-11-21T13:26:06;101735.97;;;11.86
49593;BMP280;35499;51.482;4.264;2023-11-21T13:28:32;101742.88;;;11.84
49593;BMP280;35499;51.482;4.264;2023-11-21T13:30:59;101754.03;;;11.83
49593;BMP280;35499;51.482;4.264;2023-11-21T13:33:28;101751.44;;;11.83
49593;BMP280;35499;51.482;4.264;2023-11-21T13:35:53;101756.63;;;11.80
49593;BMP280;35499;51.482;4.264;2023-11-21T13:38:21;101756.63;;;11.80
49593;BMP280;35499;51.482;4.264;2023-11-21T13:40:51;101764.34;;;11.80
49593;BMP280;35499;51.482;4.264;2023-11-21T13:43:19;101767.75;;;11.80
49593;BMP280;35499;51.482;4.264;2023-11-21T13:45:47;101763.44;;;11.81
49593;BMP280;35499;51.482;4.264;2023-11-21T13:48:13;101772.03;;;11.83
49593;BMP280;35499;51.482;4.264;2023-11-21T13:50:47;101780.63;;;11.83
49593;BMP280;35499;51.482;4.264;2023-11-21T13:53:27;101780.63;;;11.85
49593;BMP280;35499;51.482;4.264;2023-11-21T13:55:53;101784.91;;;11.84
49593;BMP280;35499;51.482;4.264;2023-11-21T13:58:25;101785.75;;;11.85
49593;BMP280;35499;51.482;4.264;2023-11-21T14:01:06;101783.19;;;11.85
49593;BMP280;35499;51.482;4.264;2023-11-21T14:03:38;101790.91;;;11.85
49593;BMP280;35499;51.482;4.264;2023-11-21T14:06:10;101796.91;;;11.85
49593;BMP280;35499;51.482;4.264;2023-11-21T14:08:40;101804.63;;;11.82
49593;BMP280;35499;51.482;4.264;2023-11-21T14:11:07;101796.91;;;11.81
49593;BMP280;35499;51.482;4.264;2023-11-21T14:13:32;101812.38;;;11.80